createdAt,value
2019-05-22T00:04:18.457Z,10.4948
2019-05-22T00:44:59.430Z,10.5669
2019-05-22T01:23:38.538Z,10.4120
2019-05-22T01:33:48.433Z,10.3239
2019-05-22T02:02:18.465Z,10.3506
2019-05-22T02:10:28.438Z,10.2544
2019-05-22T02:38:57.758Z,10.1129
2019-05-22T02:49:08.503Z,10.0835
2019-05-22T03:07:28.461Z,10.1556
2019-05-22T03:17:40.292Z,10.1263
2019-05-22T03:56:20.669Z,9.8859
2019-05-22T03:58:23.430Z,9.9153
2019-05-22T04:02:28.431Z,9.9580
2019-05-22T04:10:41.055Z,10.0702
2019-05-22T04:49:19.502Z,10.2678
2019-05-22T04:57:28.488Z,10.2945
2019-05-22T05:11:48.720Z,10.2384
2019-05-22T05:19:58.528Z,10.2811
2019-05-22T06:00:44.487Z,13.8354
2019-05-22T06:04:49.592Z,14.7807
2019-05-22T06:12:58.472Z,15.6165
2019-05-22T06:17:08.560Z,14.0330
2019-05-22T06:27:18.445Z,12.7165
2019-05-22T06:35:27.771Z,15.3201
2019-05-22T06:45:38.570Z,16.4496
2019-05-22T07:14:08.491Z,13.4508
2019-05-22T07:22:18.823Z,15.7713
2019-05-22T08:11:08.506Z,19.1093
2019-05-22T08:29:29.503Z,19.7875
2019-05-22T08:33:36.021Z,19.5205
2019-05-22T08:39:43.446Z,19.8730
2019-05-22T08:44:13.604Z,20.6527
2019-05-22T08:48:13.916Z,19.3389
2019-05-22T09:19:54.995Z,20.3697
2019-05-22T09:39:32.934Z,21.5446
2019-05-22T09:48:09.633Z,21.7288
2019-05-22T10:00:09.163Z,22.9065
2019-05-22T10:00:09.163Z,22.5807
2019-05-22T10:03:01.376Z,21.0346
2019-05-22T10:08:28.025Z,22.3671
2019-05-22T10:19:23.264Z,23.3310
2019-05-22T10:37:23.587Z,22.1000
2019-05-22T10:43:00.726Z,22.7089
2019-05-22T10:46:02.375Z,22.6928
2019-05-22T11:00:20.908Z,21.4591
2019-05-22T11:03:04.813Z,23.0026
2019-05-22T11:06:05.696Z,21.9558
2019-05-22T11:09:00.567Z,22.2122
2019-05-22T11:11:45.480Z,22.1267
2019-05-22T11:14:34.974Z,23.1762
2019-05-22T11:17:18.964Z,23.3310
2019-05-22T11:33:58.808Z,22.4926
2019-05-22T11:42:05.754Z,21.7582
2019-05-22T11:55:45.391Z,22.6101
2019-05-22T12:01:07.447Z,22.8637
2019-05-22T12:11:56.766Z,23.4298
2019-05-22T12:20:03.735Z,23.8411
2019-05-22T12:25:28.835Z,23.7690
2019-05-22T12:28:27.158Z,23.4566
2019-05-22T12:33:54.477Z,23.8277
2019-05-22T12:42:03.273Z,23.5740
2019-05-22T12:44:46.844Z,23.3738
2019-05-22T12:47:56.270Z,22.5219
2019-05-22T12:53:22.862Z,24.0520
2019-05-22T12:58:52.933Z,23.7850
2019-05-22T13:07:32.548Z,21.7449
2019-05-22T13:16:13.699Z,21.6461
2019-05-22T13:19:00.376Z,22.5807
2019-05-22T13:37:56.819Z,21.7155
2019-05-22T13:43:45.718Z,23.5286
2019-05-22T13:49:45.141Z,20.4818
2019-05-22T14:01:27.864Z,21.6728
2019-05-22T14:04:11.850Z,21.9131
2019-05-22T14:06:58.486Z,21.5312
2019-05-22T14:09:57.153Z,21.3897
2019-05-22T14:12:39.759Z,23.0907
2019-05-22T14:15:25.813Z,23.0186
2019-05-22T14:18:22.661Z,21.8997
2019-05-22T14:21:12.697Z,22.1267
2019-05-22T14:23:56.774Z,21.1921
2019-05-22T14:26:39.787Z,22.9065
2019-05-22T14:29:22.850Z,23.8411
2019-05-22T14:35:06.039Z,21.7876
2019-05-22T14:37:49.802Z,23.0186
2019-05-22T14:40:31.778Z,23.5126
2019-05-22T14:43:13.782Z,22.3804
2019-05-22T14:46:02.167Z,21.4324
2019-05-22T14:48:46.762Z,20.9064
2019-05-22T14:51:29.472Z,20.7675
2019-05-22T14:54:12.815Z,20.5512
2019-05-22T14:56:57.680Z,20.3964
2019-05-22T14:59:40.792Z,20.4685
2019-05-22T15:02:24.013Z,21.4324
2019-05-22T15:05:12.792Z,22.3804
2019-05-22T15:07:56.653Z,21.5152
2019-05-22T15:10:40.314Z,21.1227
2019-05-22T15:13:23.868Z,20.2709
2019-05-22T15:16:07.821Z,19.1226
2019-05-22T15:18:50.194Z,19.3095
2019-05-22T15:21:33.942Z,18.8129
2019-05-22T15:28:46.418Z,18.4577
2019-05-22T15:31:29.958Z,18.1479
2019-05-22T15:34:13.971Z,18.3455
2019-05-22T15:37:02.934Z,18.0785
2019-05-22T15:39:47.510Z,17.7928
2019-05-22T15:42:57.241Z,17.6245
2019-05-22T15:49:12.406Z,18.3188
2019-05-22T15:52:02.674Z,19.1226
2019-05-22T15:54:45.886Z,18.9410
2019-05-22T15:57:30.108Z,18.6019
2019-05-22T16:00:19.344Z,19.1093
2019-05-22T16:03:26.916Z,19.0398
2019-05-22T16:06:10.867Z,18.2895
2019-05-22T16:08:55.008Z,18.8289
2019-05-22T16:11:38.966Z,19.2828
2019-05-22T16:14:22.882Z,19.5071
2019-05-22T16:17:07.751Z,19.9290
2019-05-22T16:19:52.327Z,20.9918
2019-05-22T16:22:36.182Z,20.7675
2019-05-22T16:25:20.778Z,20.8930
2019-05-22T16:28:06.308Z,20.3136
2019-05-22T16:31:00.495Z,22.1695
2019-05-22T16:33:55.203Z,22.0680
2019-05-22T16:36:39.958Z,22.1267
2019-05-22T16:39:29.226Z,23.3444
2019-05-22T16:42:12.040Z,21.9265
2019-05-22T16:44:57.416Z,22.0413
2019-05-22T16:51:23.134Z,23.0907
2019-05-22T16:54:06.760Z,23.6007
2019-05-22T16:56:48.817Z,22.8637
2019-05-22T16:59:36.609Z,22.7916
2019-05-22T17:02:19.955Z,23.3577
2019-05-22T17:05:03.920Z,22.1000
2019-05-22T17:07:47.798Z,22.3964
2019-05-22T17:10:39.890Z,22.7783
2019-05-22T17:13:31.504Z,22.9065
2019-05-22T17:16:13.895Z,22.4365
2019-05-22T17:19:27.772Z,22.4365
2019-05-22T17:22:12.851Z,21.8437
2019-05-22T17:24:55.930Z,20.9224
2019-05-22T17:31:37.299Z,20.9651
2019-05-22T17:31:37.299Z,20.1427
2019-05-22T17:34:20.804Z,21.2615
2019-05-22T17:37:14.911Z,21.0613
2019-05-22T17:39:59.756Z,20.9224
2019-05-22T17:42:42.267Z,20.1427
2019-05-22T17:45:28.714Z,20.6126
2019-05-22T17:48:11.500Z,20.5512
2019-05-22T17:50:54.751Z,20.2014
2019-05-22T17:53:37.852Z,20.4952
2019-05-22T17:56:50.957Z,20.2575
2019-05-22T17:59:53.031Z,19.1814
2019-05-22T18:02:47.468Z,18.5164
2019-05-22T18:05:32.506Z,18.1640
2019-05-22T18:08:22.256Z,17.6112
2019-05-22T18:11:07.437Z,17.0157
2019-05-22T18:13:49.941Z,16.2654
2019-05-22T18:16:34.118Z,15.5310
2019-05-22T18:19:25.888Z,15.3334
2019-05-22T18:22:10.729Z,14.7967
2019-05-22T18:24:54.648Z,14.0597
2019-05-22T18:27:38.999Z,13.5924
2019-05-22T18:30:23.374Z,12.8153
2019-05-22T18:33:07.286Z,12.6444
2019-05-22T18:35:51.436Z,12.4334
2019-05-22T18:38:34.964Z,12.3480
2019-05-22T18:41:18.846Z,11.9661
2019-05-22T18:44:01.968Z,11.6537
2019-05-22T18:46:45.802Z,11.4561
2019-05-22T18:49:28.859Z,11.2879
2019-05-22T18:52:11.856Z,11.1170
2019-05-22T18:54:54.823Z,10.7645
2019-05-22T18:57:37.826Z,10.5802
2019-05-22T19:00:20.862Z,10.3960
2019-05-22T19:03:03.814Z,10.3105
2019-05-22T19:05:46.795Z,10.1396
2019-05-22T19:08:28.781Z,9.9847
2019-05-22T19:11:11.892Z,9.8859
2019-05-22T19:13:55.889Z,9.8859
2019-05-22T19:16:39.833Z,9.7044
2019-05-22T19:19:25.867Z,10.0835
2019-05-22T19:22:14.361Z,10.9594
2019-05-22T19:24:57.956Z,11.1463
2019-05-22T19:27:44.628Z,11.3146
2019-05-22T19:30:27.994Z,11.7685
2019-05-22T19:33:14.883Z,11.9234
2019-05-22T19:36:00.642Z,11.9528
2019-05-22T19:38:44.741Z,12.1504
2019-05-22T19:41:27.830Z,12.1344
2019-05-22T19:44:12.640Z,12.1504
2019-05-22T19:46:55.559Z,12.3320
2019-05-22T19:49:38.478Z,12.2198
2019-05-22T19:52:22.779Z,12.2625
2019-05-22T19:55:09.676Z,12.1931
2019-05-22T19:57:52.539Z,12.1210
2019-05-22T20:00:35.873Z,11.8967
2019-05-22T20:03:20.265Z,11.8807
2019-05-22T20:06:03.826Z,11.6964
2019-05-22T20:08:48.048Z,11.6243
2019-05-22T20:11:31.856Z,11.4988
2019-05-22T20:14:15.219Z,11.1330
2019-05-22T20:16:58.833Z,10.9033
2019-05-22T20:19:41.919Z,10.8900
2019-05-22T20:22:25.842Z,11.2585
2019-05-22T20:25:09.034Z,11.0769
2019-05-22T20:27:53.022Z,10.7912
2019-05-22T20:30:36.553Z,10.6363
2019-05-22T20:33:19.564Z,10.3105
2019-05-22T20:36:02.560Z,10.2945
2019-05-22T20:38:45.577Z,9.8726
2019-05-22T20:41:28.535Z,9.6029
2019-05-22T20:44:12.384Z,9.0528
2019-05-22T20:46:55.657Z,9.0394
2019-05-22T20:49:38.591Z,8.7110
2019-05-22T20:52:21.827Z,8.5428
2019-05-22T20:55:04.491Z,8.5428
2019-05-22T20:57:48.494Z,8.3452
2019-05-22T21:00:31.658Z,8.1769
2019-05-22T21:03:15.454Z,7.9900
2019-05-22T21:06:02.282Z,7.8779
2019-05-22T21:08:46.973Z,7.9206
2019-05-22T21:11:32.445Z,7.8084
2019-05-22T21:14:18.319Z,7.7363
2019-05-22T21:17:03.621Z,7.5681
2019-05-22T21:19:47.795Z,7.4693
2019-05-22T21:22:31.262Z,7.4399
2019-05-22T21:25:15.413Z,7.5120
2019-05-22T21:27:59.044Z,7.5948
2019-05-22T21:30:42.436Z,7.7657
2019-05-22T21:33:26.418Z,7.9767
2019-05-22T21:36:09.484Z,8.1449
2019-05-22T21:38:52.591Z,8.3745
2019-05-22T21:41:35.482Z,8.6122
2019-05-22T21:44:18.787Z,8.9380
2019-05-22T21:47:01.570Z,9.0528
2019-05-22T21:49:44.608Z,9.0955
2019-05-22T21:52:27.516Z,9.0528
2019-05-22T21:55:10.679Z,9.1089
2019-05-22T21:57:53.470Z,9.0822
2019-05-22T22:00:36.587Z,9.0528
2019-05-22T22:03:19.887Z,9.0661
2019-05-22T22:06:03.641Z,9.1382
2019-05-22T22:08:46.466Z,9.0101
2019-05-22T22:11:30.258Z,8.9540
2019-05-22T22:14:13.674Z,8.9220
2019-05-22T22:16:57.126Z,8.8525
2019-05-22T22:19:41.407Z,8.8258
2019-05-22T22:22:25.655Z,8.8392
2019-05-22T22:25:10.305Z,8.8819
2019-05-22T22:27:53.451Z,8.8258
2019-05-22T22:30:37.710Z,8.7964
2019-05-22T22:33:21.733Z,8.6976
2019-05-22T22:36:04.270Z,8.5721
2019-05-22T22:38:48.733Z,8.3745
2019-05-22T22:41:33.345Z,8.0461
2019-05-22T22:44:17.202Z,7.7096
2019-05-22T22:47:01.268Z,7.3545
2019-05-22T22:49:45.790Z,7.0848
2019-05-22T22:52:29.274Z,6.8044
2019-05-22T22:55:12.542Z,6.6495
2019-05-22T22:57:55.266Z,6.4065
2019-05-22T23:00:40.471Z,6.2516
2019-05-22T23:03:24.867Z,6.0407
2019-05-22T23:06:09.607Z,5.8110
2019-05-22T23:08:53.721Z,5.9125
2019-05-22T23:15:07.162Z,6.1528
2019-05-22T23:15:07.162Z,6.0967
2019-05-22T23:17:51.409Z,6.1822
2019-05-22T23:20:36.899Z,6.2516
2019-05-22T23:23:22.004Z,6.3210
2019-05-22T23:26:06.501Z,6.2650
2019-05-22T23:28:55.077Z,6.3371
2019-05-22T23:31:39.494Z,6.5053
2019-05-22T23:34:22.198Z,6.5747
2019-05-22T23:37:06.242Z,6.5747
2019-05-22T23:39:50.273Z,6.4786
2019-05-22T23:42:33.776Z,6.5747
2019-05-22T23:45:16.604Z,6.6628
2019-05-22T23:47:59.517Z,6.6495
2019-05-22T23:50:42.524Z,6.7483
2019-05-22T23:53:25.761Z,6.6762
2019-05-22T23:56:10.090Z,6.6201
2019-05-22T23:58:54.735Z,6.6495
